Terminal Aerodrome Forecast
Issued by NWS King Salmon, AK

Home | Current Version | Previous Version | Text Only | Print | Product List | Glossary On
Versions: 1 2 3 4 5 6 7 8 9 10 11 12 13 14 15
000
FTAK31 PANC 271140
TAFAKN
TAF
PAKN 271140Z 2712/2812 34005KT P6SM VCFG SKC
     FM271500 35008G14KT P6SM SKC
     FM272200 34015G23KT P6SM SKC
     FM281000 35008KT P6SM BKN120=

USA.gov is the U.S. government's official web portal to all federal, state and local government web resources and services.